Dades meteomassalio
Diari Summary for Agost 18, 2017 Units:  Metric    English   Both
« Previous Day
Next Day »
Diari Semanal Mensual Anual Personalitzat
  Maxima: Minima: Mijana:
Temperatura: 37.1 °C 19.7 °C 28 °C
Rosada: 20.0 °C 14.2 °C 17.3 °C
Humitat: 80 % 29 % 55 %
Velocitat del vent: 44.4 km/h 0.0 km/h 9.7 km/h
Racha vent: 44.4 km/h - -
Vent:- - South
Pressio: 1016.5 hPa 1011.7 hPa -
Pluja: 0.0 mm    
Historical Graphs
 
 
Tabular Data for Agost 18, 2017
Time Temperature Dew Point Pressure Wind Wind Speed Wind Gust Humidity Rainfall Rate (Hourly) solar Conditions
00:04 25.4 °C 17.8 °C 1015.8 hPa Calm     63 % 0.0 mm 0.0 W/m2 CLR
00:09 25.3 °C 18.1 °C 1015.8 hPa Calm     64 % 0.0 mm 0.0 W/m2 CLR
00:14 25.3 °C 18.2 °C 1015.8 hPa Calm     65 % 0.0 mm 0.0 W/m2 CLR
00:19 25.2 °C 18.4 °C 1015.8 hPa Calm     66 % 0.0 mm 0.0 W/m2 CLR
00:24 25.1 °C 18.3 °C 1015.8 hPa Calm     66 % 0.0 mm 0.0 W/m2 CLR
00:29 25.0 °C 18.7 °C 1015.8 hPa Calm     68 % 0.0 mm 0.0 W/m2 CLR
00:34 24.9 °C 18.6 °C 1015.8 hPa Calm     68 % 0.0 mm 0.0 W/m2 CLR
00:39 24.8 °C 18.7 °C 1015.8 hPa Calm     69 % 0.0 mm 0.0 W/m2 CLR
00:44 24.7 °C 18.7 °C 1015.5 hPa Calm     69 % 0.0 mm 0.0 W/m2 CLR
00:49 24.7 °C 18.4 °C 1015.5 hPa Calm     68 % 0.0 mm 0.0 W/m2 CLR
00:54 24.6 °C 18.6 °C 1015.5 hPa Calm     69 % 0.0 mm 0.0 W/m2 CLR
00:59 24.6 °C 18.6 °C 1015.5 hPa Calm     69 % 0.0 mm 0.0 W/m2 CLR
01:04 24.6 °C 18.6 °C 1015.5 hPa Calm     69 % 0.0 mm 0.0 W/m2 CLR
01:09 24.6 °C 18.3 °C 1015.5 hPa Calm     68 % 0.0 mm 0.0 W/m2 CLR
01:14 24.5 °C 18.4 °C 1015.5 hPa Calm     69 % 0.0 mm 0.0 W/m2 CLR
01:19 24.5 °C 18.4 °C 1015.5 hPa Calm     69 % 0.0 mm 0.0 W/m2 CLR
01:24 24.5 °C 18.4 °C 1015.5 hPa Calm     69 % 0.0 mm 0.0 W/m2 CLR
01:29 24.4 °C 18.4 °C 1015.5 hPa Calm     69 % 0.0 mm 0.0 W/m2 CLR
01:34 24.4 °C 18.3 °C 1015.5 hPa Calm     69 % 0.0 mm 0.0 W/m2 CLR
01:39 24.3 °C 18.3 °C 1015.5 hPa Calm     69 % 0.0 mm 0.0 W/m2 CLR
01:44 24.3 °C 18.3 °C 1015.5 hPa Calm     69 % 0.0 mm 0.0 W/m2 CLR
01:49 24.2 °C 18.4 °C 1015.5 hPa Calm     70 % 0.0 mm 0.0 W/m2 CLR
01:54 24.2 °C 18.3 °C 1015.5 hPa Calm     70 % 0.0 mm 0.0 W/m2 CLR
01:59 24.1 °C 18.2 °C 1015.5 hPa Calm     70 % 0.0 mm 0.0 W/m2 CLR
02:04 24.0 °C 18.2 °C 1015.5 hPa Calm     70 % 0.0 mm 0.0 W/m2 CLR
02:09 23.9 °C 18.1 °C 1015.5 hPa Calm     70 % 0.0 mm 0.0 W/m2 CLR
02:14 23.9 °C 18.1 °C 1015.5 hPa Calm     70 % 0.0 mm 0.0 W/m2 CLR
02:19 23.9 °C 18.3 °C 1015.5 hPa Calm     71 % 0.0 mm 0.0 W/m2 CLR
02:24 23.9 °C 18.4 °C 1015.1 hPa Calm     71 % 0.0 mm 0.0 W/m2 CLR
02:29 23.9 °C 18.6 °C 1015.1 hPa Calm     72 % 0.0 mm 0.0 W/m2 CLR
02:34 23.9 °C 18.4 °C 1015.1 hPa Calm     71 % 0.0 mm 0.0 W/m2 CLR
02:40 23.9 °C 18.3 °C 1015.1 hPa Calm     71 % 0.0 mm 0.0 W/m2 CLR
02:45 23.8 °C 18.4 °C 1015.1 hPa Calm     72 % 0.0 mm 0.0 W/m2 CLR
02:50 23.7 °C 18.4 °C 1015.1 hPa Calm     72 % 0.0 mm 0.0 W/m2 CLR
02:55 23.6 °C 18.5 °C 1015.1 hPa Calm     73 % 0.0 mm 0.0 W/m2 CLR
03:00 23.5 °C 18.2 °C 1015.1 hPa Calm     72 % 0.0 mm 0.0 W/m2 CLR
03:05 23.4 °C 18.1 °C 1015.1 hPa Calm     72 % 0.0 mm 0.0 W/m2 CLR
03:10 23.4 °C 18.3 °C 1015.1 hPa Calm     73 % 0.0 mm 0.0 W/m2 CLR
03:15 23.2 °C 18.3 °C 1015.1 hPa Calm     74 % 0.0 mm 0.0 W/m2 CLR
03:20 23.2 °C 18.3 °C 1015.1 hPa Calm     74 % 0.0 mm 0.0 W/m2 CLR
03:25 23.1 °C 17.5 °C 1015.1 hPa Calm     71 % 0.0 mm 0.0 W/m2 CLR
03:30 22.9 °C 17.8 °C 1015.1 hPa Calm     73 % 0.0 mm 0.0 W/m2 CLR
03:35 22.8 °C 18.2 °C 1015.1 hPa Calm     75 % 0.0 mm 0.0 W/m2 CLR
03:40 22.9 °C 18.4 °C 1015.1 hPa Calm     76 % 0.0 mm 0.0 W/m2 CLR
03:45 23.0 °C 18.3 °C 1015.1 hPa ENE 1.9 km/h   75 % 0.0 mm 0.0 W/m2 CLR
03:50 23.1 °C 18.4 °C 1015.1 hPa Calm     75 % 0.0 mm 0.0 W/m2 CLR
03:55 23.1 °C 18.4 °C 1015.1 hPa Calm     75 % 0.0 mm 0.0 W/m2 CLR
04:00 22.9 °C 18.1 °C 1015.1 hPa Calm     74 % 0.0 mm 0.0 W/m2 CLR
04:05 22.7 °C 17.4 °C 1015.1 hPa Calm     72 % 0.0 mm 0.0 W/m2 CLR
04:10 22.6 °C 17.4 °C 1015.1 hPa Calm     73 % 0.0 mm 0.0 W/m2 CLR
04:15 22.4 °C 17.4 °C 1015.1 hPa Calm     73 % 0.0 mm 0.0 W/m2 CLR
04:20 22.3 °C 17.2 °C 1015.1 hPa Calm     73 % 0.0 mm 0.0 W/m2 CLR
04:25 22.2 °C 17.6 °C 1015.1 hPa Calm     75 % 0.0 mm 0.0 W/m2 CLR
04:30 22.1 °C 17.2 °C 1015.1 hPa Calm     74 % 0.0 mm 0.0 W/m2 CLR
04:35 21.9 °C 17.1 °C 1015.1 hPa Calm     74 % 0.0 mm 0.0 W/m2 CLR
04:40 21.8 °C 17.0 °C 1015.1 hPa Calm     74 % 0.0 mm 0.0 W/m2 CLR
04:45 21.8 °C 16.9 °C 1015.1 hPa Calm     74 % 0.0 mm 0.0 W/m2 CLR
04:50 21.6 °C 17.0 °C 1015.1 hPa Calm     75 % 0.0 mm 0.0 W/m2 CLR
04:55 21.6 °C 16.9 °C 1015.1 hPa Calm     75 % 0.0 mm 0.0 W/m2 CLR
05:00 21.5 °C 17.1 °C 1015.1 hPa Calm     76 % 0.0 mm 0.0 W/m2 CLR
05:05 21.4 °C 16.8 °C 1015.1 hPa Calm     75 % 0.0 mm 0.0 W/m2 CLR
05:10 21.3 °C 16.7 °C 1015.1 hPa Calm     75 % 0.0 mm 0.0 W/m2 CLR
05:15 21.2 °C 16.6 °C 1014.8 hPa Calm     75 % 0.0 mm 0.0 W/m2 CLR
05:21 21.1 °C 16.5 °C 1015.1 hPa Calm     75 % 0.0 mm 0.0 W/m2 CLR
05:22 21.1 °C 16.5 °C 1015.1 hPa Calm     75 % 0.0 mm 0.0 W/m2 CLR
05:24 21.1 °C 16.4 °C 1014.8 hPa Calm     75 % 0.0 mm 0.0 W/m2 CLR
05:27 21.0 °C 16.4 °C 1015.1 hPa Calm     75 % 0.0 mm 0.0 W/m2 CLR
05:31 20.9 °C 16.6 °C 1015.1 hPa Calm     76 % 0.0 mm 0.0 W/m2 CLR
05:36 20.9 °C 16.9 °C 1015.1 hPa Calm     78 % 0.0 mm 0.0 W/m2 CLR
05:41 20.8 °C 16.7 °C 1014.8 hPa Calm     77 % 0.0 mm 0.0 W/m2 CLR
05:46 20.8 °C 16.8 °C 1014.8 hPa Calm     78 % 0.0 mm 0.0 W/m2 CLR
05:51 20.7 °C 16.7 °C 1014.8 hPa Calm     78 % 0.0 mm 0.0 W/m2 CLR
05:56 20.7 °C 16.3 °C 1014.8 hPa Calm     76 % 0.0 mm 0.0 W/m2 CLR
06:01 20.6 °C 16.2 °C 1015.1 hPa Calm     76 % 0.0 mm 0.0 W/m2 CLR
06:06 20.4 °C 16.1 °C 1015.1 hPa Calm     76 % 0.0 mm 0.0 W/m2 CLR
06:11 20.4 °C 16.2 °C 1015.1 hPa Calm     77 % 0.0 mm 0.0 W/m2 CLR
06:16 20.3 °C 16.2 °C 1015.1 hPa Calm     77 % 0.0 mm 0.0 W/m2 CLR
06:21 20.3 °C 16.4 °C 1015.1 hPa Calm     78 % 0.0 mm 0.0 W/m2 CLR
06:26 20.2 °C 16.1 °C 1015.1 hPa Calm     77 % 0.0 mm 0.0 W/m2 CLR
06:31 20.2 °C 16.2 °C 1015.1 hPa Calm     78 % 0.0 mm 0.0 W/m2 CLR
06:36 20.2 °C 16.2 °C 1015.1 hPa Calm     78 % 0.0 mm 0.0 W/m2 CLR
06:41 20.1 °C 16.1 °C 1015.1 hPa Calm     78 % 0.0 mm 0.0 W/m2 CLR
06:46 20.0 °C 15.8 °C 1015.1 hPa Calm     77 % 0.0 mm 0.0 W/m2 CLR
06:51 20.0 °C 16.1 °C 1015.1 hPa Calm     78 % 0.0 mm 0.0 W/m2 CLR
06:56 19.9 °C 15.8 °C 1015.1 hPa Calm     77 % 0.0 mm 0.0 W/m2 CLR
07:01 19.9 °C 15.9 °C 1015.1 hPa Calm     78 % 0.0 mm 0.0 W/m2 CLR
07:06 19.9 °C 16.1 °C 1015.1 hPa Calm     79 % 0.0 mm 0.0 W/m2 OVC
07:11 19.9 °C 16.4 °C 1015.1 hPa Calm     80 % 0.0 mm 0.0 W/m2 OVC
07:16 19.9 °C 15.7 °C 1015.1 hPa Calm     77 % 0.0 mm 5.0 W/m2 OVC
07:21 19.9 °C 15.6 °C 1015.1 hPa Calm     76 % 0.0 mm 7.0 W/m2 BKN
07:26 19.8 °C 15.7 °C 1015.1 hPa Calm     77 % 0.0 mm 11.0 W/m2 BKN
07:31 19.8 °C 15.6 °C 1015.1 hPa Calm     77 % 0.0 mm 14.0 W/m2 BKN
07:36 19.7 °C 15.6 °C 1015.1 hPa Calm     77 % 0.0 mm 19.0 W/m2 BKN
07:41 19.7 °C 15.6 °C 1015.1 hPa Calm     77 % 0.0 mm 23.0 W/m2 BKN
07:46 19.7 °C 15.6 °C 1015.1 hPa Calm     77 % 0.0 mm 28.0 W/m2 BKN
07:51 19.8 °C 15.7 °C 1015.1 hPa Calm     77 % 0.0 mm 37.0 W/m2 BKN
07:56 20.0 °C 15.8 °C 1015.1 hPa Calm     77 % 0.0 mm 44.0 W/m2 BKN
08:01 20.1 °C 15.9 °C 1015.1 hPa Calm     77 % 0.0 mm 51.0 W/m2 SCT
08:06 20.3 °C 15.9 °C 1015.1 hPa Calm     76 % 0.0 mm 65.0 W/m2 SCT
08:11 20.6 °C 15.9 °C 1015.1 hPa Calm     75 % 0.0 mm 77.0 W/m2 FEW
08:16 20.8 °C 16.0 °C 1015.1 hPa Calm     74 % 0.0 mm 91.0 W/m2 FEW
08:21 21.1 °C 16.2 °C 1015.1 hPa Calm     74 % 0.0 mm 107.0 W/m2 CLR
08:26 21.3 °C 16.3 °C 1015.1 hPa Calm     73 % 0.0 mm 121.0 W/m2 CLR
08:27 21.4 °C 16.3 °C 1015.1 hPa Calm     73 % 0.0 mm 121.0 W/m2 CLR
08:32 21.7 °C 16.8 °C 1015.5 hPa Calm     74 % 0.0 mm 137.0 W/m2 CLR
08:37 22.0 °C 16.9 °C 1015.5 hPa Calm     73 % 0.0 mm 156.0 W/m2 CLR
08:42 22.3 °C 17.0 °C 1015.5 hPa Calm     72 % 0.0 mm 172.0 W/m2 CLR
08:47 22.4 °C 16.7 °C 1015.1 hPa Calm     70 % 0.0 mm 188.0 W/m2 CLR
08:52 22.5 °C 17.0 °C 1015.5 hPa Calm     71 % 0.0 mm 202.0 W/m2 CLR
08:57 22.8 °C 17.1 °C 1015.5 hPa Calm     70 % 0.0 mm 221.0 W/m2 CLR
09:02 23.3 °C 17.3 °C 1015.5 hPa Calm     69 % 0.0 mm 237.0 W/m2 CLR
09:07 23.7 °C 17.4 °C 1015.5 hPa Calm     68 % 0.0 mm 250.0 W/m2 CLR
09:12 23.9 °C 17.7 °C 1015.5 hPa Calm     68 % 0.0 mm 264.0 W/m2 CLR
09:17 24.4 °C 17.9 °C 1015.5 hPa Calm     67 % 0.0 mm 200.0 W/m2 CLR
09:22 24.8 °C 18.0 °C 1015.5 hPa Calm     66 % 0.0 mm 116.0 W/m2 CLR
09:27 25.1 °C 18.3 °C 1015.5 hPa Calm     66 % 0.0 mm 311.0 W/m2 CLR
09:32 25.2 °C 18.4 °C 1015.5 hPa Calm     66 % 0.0 mm 330.0 W/m2 CLR
09:37 25.4 °C 18.6 °C 1015.5 hPa Calm     66 % 0.0 mm 345.0 W/m2 CLR
09:42 25.6 °C 18.6 °C 1015.5 hPa Calm     65 % 0.0 mm 359.0 W/m2 CLR
09:47 25.7 °C 18.7 °C 1015.5 hPa Calm     65 % 0.0 mm 376.0 W/m2 CLR
09:52 25.9 °C 18.8 °C 1015.1 hPa Calm     65 % 0.0 mm 396.0 W/m2 CLR
09:57 26.2 °C 19.1 °C 1015.1 hPa Calm     65 % 0.0 mm 410.0 W/m2 CLR
10:02 26.4 °C 19.1 °C 1015.1 hPa Calm     64 % 0.0 mm 420.0 W/m2 CLR
10:07 26.7 °C 19.1 °C 1015.1 hPa Calm     63 % 0.0 mm 434.0 W/m2 CLR
10:12 27.2 °C 19.3 °C 1015.1 hPa Calm     62 % 0.0 mm 450.0 W/m2 CLR
10:17 27.6 °C 19.3 °C 1015.1 hPa Calm     61 % 0.0 mm 466.0 W/m2 CLR
10:22 27.9 °C 19.4 °C 1015.5 hPa ENE 7.4 km/h 7.4 km/h 60 % 0.0 mm 478.0 W/m2 CLR
10:27 28.1 °C 19.3 °C 1015.5 hPa Calm     59 % 0.0 mm 494.0 W/m2 CLR
10:32 28.1 °C 19.6 °C 1015.5 hPa ENE 1.9 km/h 1.9 km/h 60 % 0.0 mm 506.0 W/m2 CLR
10:37 28.2 °C 19.7 °C 1015.5 hPa ENE 5.6 km/h 5.6 km/h 60 % 0.0 mm 520.0 W/m2 CLR
10:42 28.3 °C 19.6 °C 1015.5 hPa ENE 5.6 km/h   59 % 0.0 mm 533.0 W/m2 CLR
10:47 28.6 °C 19.8 °C 1015.5 hPa ENE 5.6 km/h 5.6 km/h 59 % 0.0 mm 547.0 W/m2 CLR
10:52 28.7 °C 19.7 °C 1015.5 hPa ENE 8.0 km/h 8.0 km/h 58 % 0.0 mm 559.0 W/m2 CLR
10:57 28.8 °C 19.4 °C 1015.1 hPa ENE 9.7 km/h 9.7 km/h 57 % 0.0 mm 575.0 W/m2 CLR
11:02 28.7 °C 19.7 °C 1015.1 hPa ENE 14.8 km/h 14.8 km/h 58 % 0.0 mm 587.0 W/m2 CLR
11:07 28.9 °C 19.8 °C 1015.1 hPa ENE 11.1 km/h 11.1 km/h 58 % 0.0 mm 596.0 W/m2 CLR
11:12 29.0 °C 19.6 °C 1015.5 hPa East 6.4 km/h 6.4 km/h 57 % 0.0 mm 606.0 W/m2 CLR
11:17 29.0 °C 19.9 °C 1015.1 hPa ESE 13.0 km/h 13.0 km/h 58 % 0.0 mm 619.0 W/m2 CLR
11:22 29.1 °C 20.0 °C 1015.1 hPa ENE 8.0 km/h 8.0 km/h 58 % 0.0 mm 629.0 W/m2 CLR
11:27 29.3 °C 19.9 °C 1015.1 hPa NE 14.8 km/h 14.8 km/h 57 % 0.0 mm 636.0 W/m2 CLR
11:32 29.6 °C 19.6 °C 1015.1 hPa North 11.3 km/h 11.3 km/h 55 % 0.0 mm 649.0 W/m2 CLR
11:37 29.9 °C 19.9 °C 1014.8 hPa NNE 9.3 km/h 9.3 km/h 55 % 0.0 mm 659.0 W/m2 CLR
11:42 30.2 °C 19.9 °C 1014.8 hPa East 7.4 km/h 7.4 km/h 54 % 0.0 mm 673.0 W/m2 CLR
11:47 30.2 °C 19.8 °C 1014.8 hPa NE 5.6 km/h   54 % 0.0 mm 682.0 W/m2 CLR
11:53 30.3 °C 19.6 °C 1014.8 hPa NNE 5.6 km/h   53 % 0.0 mm 693.0 W/m2 CLR
11:58 30.4 °C 19.8 °C 1015.1 hPa East 7.4 km/h 7.4 km/h 53 % 0.0 mm 703.0 W/m2 CLR
12:03 30.6 °C 19.6 °C 1014.8 hPa ENE 11.1 km/h 11.1 km/h 52 % 0.0 mm 712.0 W/m2 CLR
12:08 30.8 °C 19.8 °C 1014.8 hPa East 6.4 km/h 6.4 km/h 52 % 0.0 mm 722.0 W/m2 CLR
12:13 30.9 °C 19.6 °C 1014.8 hPa ENE 7.4 km/h 7.4 km/h 51 % 0.0 mm 731.0 W/m2 CLR
12:18 30.7 °C 19.4 °C 1014.4 hPa ENE 13.0 km/h 13.0 km/h 51 % 0.0 mm 740.0 W/m2 CLR
12:23 30.8 °C 19.5 °C 1014.4 hPa East 1.9 km/h   51 % 0.0 mm 745.0 W/m2 CLR
12:28 31.1 °C 19.7 °C 1014.4 hPa ENE 7.4 km/h 7.4 km/h 51 % 0.0 mm 756.0 W/m2 CLR
12:33 31.4 °C 19.4 °C 1014.4 hPa SE 5.6 km/h 5.6 km/h 49 % 0.0 mm 765.0 W/m2 CLR
12:38 31.6 °C 19.2 °C 1014.4 hPa South 5.6 km/h 5.6 km/h 48 % 0.0 mm 770.0 W/m2 CLR
12:43 31.6 °C 19.2 °C 1014.1 hPa Calm     48 % 0.0 mm 775.0 W/m2 CLR
12:48 31.8 °C 19.1 °C 1014.1 hPa Calm     47 % 0.0 mm 786.0 W/m2 CLR
12:53 32.3 °C 19.2 °C 1014.1 hPa NE 1.9 km/h 1.9 km/h 46 % 0.0 mm 791.0 W/m2 CLR
12:58 32.7 °C 19.2 °C 1014.1 hPa Calm     45 % 0.0 mm 796.0 W/m2 CLR
13:03 33.0 °C 18.8 °C 1013.8 hPa NE 5.6 km/h 5.6 km/h 43 % 0.0 mm 805.0 W/m2 CLR
13:08 33.0 °C 18.8 °C 1013.8 hPa Calm     43 % 0.0 mm 803.0 W/m2 CLR
13:13 33.2 °C 18.9 °C 1013.8 hPa Calm     43 % 0.0 mm 810.0 W/m2 CLR
13:18 33.3 °C 18.2 °C 1013.8 hPa West 1.9 km/h 1.9 km/h 41 % 0.0 mm 814.0 W/m2 CLR
13:23 33.4 °C 18.4 °C 1013.4 hPa NNE 7.4 km/h 7.4 km/h 41 % 0.0 mm 819.0 W/m2 CLR
13:28 33.6 °C 18.9 °C 1013.4 hPa Calm     42 % 0.0 mm 821.0 W/m2 CLR
13:33 33.8 °C 18.7 °C 1013.4 hPa NE 5.6 km/h 5.6 km/h 41 % 0.0 mm 828.0 W/m2 CLR
13:38 34.1 °C 19.0 °C 1013.4 hPa Calm     41 % 0.0 mm 833.0 W/m2 CLR
13:43 34.3 °C 18.8 °C 1013.4 hPa NE 13.0 km/h 13.0 km/h 40 % 0.0 mm 831.0 W/m2 CLR
13:48 34.3 °C 18.4 °C 1013.1 hPa North 5.6 km/h 5.6 km/h 39 % 0.0 mm 835.0 W/m2 CLR
13:53 34.3 °C 18.4 °C 1013.4 hPa Calm     39 % 0.0 mm 837.0 W/m2 CLR
13:58 34.6 °C 18.6 °C 1013.1 hPa East 7.4 km/h 7.4 km/h 39 % 0.0 mm 837.0 W/m2 CLR
14:03 34.7 °C 18.7 °C 1013.1 hPa East 11.1 km/h 11.1 km/h 39 % 0.0 mm 840.0 W/m2 CLR
14:08 34.6 °C 18.6 °C 1013.1 hPa East 8.0 km/h 8.0 km/h 39 % 0.0 mm 838.0 W/m2 CLR
14:13 34.7 °C 18.7 °C 1013.1 hPa Calm     39 % 0.0 mm 840.0 W/m2 CLR
14:18 35.1 °C 18.2 °C 1013.1 hPa ENE 11.1 km/h 11.1 km/h 37 % 0.0 mm 830.0 W/m2 CLR
14:23 35.3 °C 18.4 °C 1012.8 hPa ENE 5.6 km/h 5.6 km/h 37 % 0.0 mm 831.0 W/m2 CLR
14:28 35.6 °C 18.6 °C 1012.8 hPa ENE 16.7 km/h 16.7 km/h 37 % 0.0 mm 833.0 W/m2 CLR
14:33 35.7 °C 17.9 °C 1012.8 hPa East 11.1 km/h 11.1 km/h 35 % 0.0 mm 831.0 W/m2 CLR
14:38 35.5 °C 18.2 °C 1012.4 hPa ENE 7.4 km/h 7.4 km/h 36 % 0.0 mm 830.0 W/m2 CLR
14:43 35.7 °C 17.9 °C 1012.4 hPa ESE 5.6 km/h   35 % 0.0 mm 830.0 W/m2 CLR
14:48 35.9 °C 17.6 °C 1012.4 hPa NE 1.9 km/h   34 % 0.0 mm 828.0 W/m2 CLR
14:53 36.3 °C 17.9 °C 1012.4 hPa NE 11.3 km/h 11.3 km/h 34 % 0.0 mm 819.0 W/m2 CLR
14:58 36.4 °C 18.1 °C 1012.4 hPa ENE 13.0 km/h 13.0 km/h 34 % 0.0 mm 819.0 W/m2 CLR
15:03 36.5 °C 17.6 °C 1012.4 hPa NE 9.3 km/h 9.3 km/h 33 % 0.0 mm 809.0 W/m2 CLR
15:08 36.6 °C 17.7 °C 1012.4 hPa Calm     33 % 0.0 mm 800.0 W/m2 CLR
15:13 36.9 °C 17.6 °C 1012.1 hPa NE 11.1 km/h 11.1 km/h 32 % 0.0 mm 800.0 W/m2 CLR
15:18 37.1 °C 17.6 °C 1012.1 hPa ENE 16.1 km/h 16.1 km/h 32 % 0.0 mm 789.0 W/m2 CLR
15:23 36.8 °C 17.4 °C 1012.1 hPa ENE 13.0 km/h 13.0 km/h 32 % 0.0 mm 782.0 W/m2 CLR
15:28 36.7 °C 17.3 °C 1012.1 hPa NE 18.5 km/h 18.5 km/h 32 % 0.0 mm 773.0 W/m2 CLR
15:33 36.8 °C 16.9 °C 1012.1 hPa NNE 9.3 km/h 9.3 km/h 31 % 0.0 mm 773.0 W/m2 CLR
15:38 36.9 °C 17.5 °C 1012.1 hPa NE 18.5 km/h 18.5 km/h 32 % 0.0 mm 765.0 W/m2 CLR
15:43 36.9 °C 17.6 °C 1012.1 hPa NNE 14.8 km/h 14.8 km/h 32 % 0.0 mm 758.0 W/m2 CLR
15:48 37.0 °C 16.6 °C 1012.1 hPa ENE 12.9 km/h 12.9 km/h 30 % 0.0 mm 751.0 W/m2 CLR
15:53 36.8 °C 16.9 °C 1012.1 hPa NE 8.0 km/h 8.0 km/h 31 % 0.0 mm 744.0 W/m2 CLR
15:58 36.8 °C 16.4 °C 1012.1 hPa East 5.6 km/h 5.6 km/h 30 % 0.0 mm 731.0 W/m2 CLR
16:03 36.9 °C 16.5 °C 1012.1 hPa NE 16.7 km/h 16.7 km/h 30 % 0.0 mm 724.0 W/m2 CLR
16:08 37.1 °C 16.7 °C 1011.7 hPa NE 18.5 km/h 18.5 km/h 30 % 0.0 mm 715.0 W/m2 CLR
16:13 37.1 °C 16.1 °C 1011.7 hPa ENE 16.7 km/h 16.7 km/h 29 % 0.0 mm 703.0 W/m2 CLR
16:18 37.0 °C 16.6 °C 1011.7 hPa ENE 14.8 km/h 14.8 km/h 30 % 0.0 mm 698.0 W/m2 CLR
16:23 36.8 °C 16.4 °C 1011.7 hPa NE 7.4 km/h 7.4 km/h 30 % 0.0 mm 679.0 W/m2 CLR
16:28 36.9 °C 17.5 °C 1011.7 hPa NE 16.1 km/h 16.1 km/h 32 % 0.0 mm 671.0 W/m2 CLR
16:33 36.7 °C 16.8 °C 1011.7 hPa NNE 24.1 km/h 24.1 km/h 31 % 0.0 mm 659.0 W/m2 CLR
16:38 36.5 °C 16.7 °C 1011.7 hPa North 20.4 km/h 20.4 km/h 31 % 0.0 mm 645.0 W/m2 CLR
16:43 36.6 °C 16.7 °C 1011.7 hPa NNW 18.5 km/h 18.5 km/h 31 % 0.0 mm 628.0 W/m2 CLR
16:48 36.6 °C 16.7 °C 1011.7 hPa North 27.8 km/h 27.8 km/h 31 % 0.0 mm 598.0 W/m2 CLR
16:53 36.6 °C 16.7 °C 1011.7 hPa NNE 9.3 km/h 9.3 km/h 31 % 0.0 mm 555.0 W/m2 CLR
16:58 36.4 °C 16.6 °C 1011.7 hPa NNW 24.1 km/h 24.1 km/h 31 % 0.0 mm 550.0 W/m2 CLR
17:03 36.5 °C 16.7 °C 1011.7 hPa NNW 20.9 km/h 20.9 km/h 31 % 0.0 mm 432.0 W/m2 CLR
17:08 36.3 °C 16.5 °C 1011.7 hPa NNW 27.8 km/h 27.8 km/h 31 % 0.0 mm 573.0 W/m2 CLR
17:13 36.3 °C 16.5 °C 1011.7 hPa North 24.1 km/h 24.1 km/h 31 % 0.0 mm 276.0 W/m2 CLR
17:18 36.2 °C 16.3 °C 1011.7 hPa NE 9.3 km/h   31 % 0.0 mm 489.0 W/m2 CLR
17:23 36.1 °C 16.8 °C 1011.7 hPa ENE 11.1 km/h 11.1 km/h 32 % 0.0 mm 214.0 W/m2 CLR
17:28 36.0 °C 17.2 °C 1011.7 hPa NNW 18.5 km/h 18.5 km/h 33 % 0.0 mm 272.0 W/m2 CLR
17:29 36.0 °C 17.7 °C 1011.7 hPa North 11.1 km/h 11.1 km/h 34 % 0.0 mm 272.0 W/m2 CLR
17:34 36.2 °C 17.4 °C 1011.7 hPa North 5.6 km/h 5.6 km/h 33 % 0.0 mm 251.0 W/m2 CLR
17:39 36.1 °C 17.8 °C 1011.7 hPa North 13.0 km/h 13.0 km/h 34 % 0.0 mm 253.0 W/m2 CLR
17:44 35.9 °C 17.6 °C 1011.7 hPa NNW 19.3 km/h 19.3 km/h 34 % 0.0 mm 246.0 W/m2 CLR
17:49 35.9 °C 17.6 °C 1011.7 hPa North 9.7 km/h 9.7 km/h 34 % 0.0 mm 476.0 W/m2 CLR
17:54 36.0 °C 17.7 °C 1011.7 hPa North 8.0 km/h 8.0 km/h 34 % 0.0 mm 515.0 W/m2 CLR
17:59 36.1 °C 17.3 °C 1011.7 hPa NW 14.8 km/h 14.8 km/h 33 % 0.0 mm 257.0 W/m2 CLR
18:04 36.1 °C 17.8 °C 1011.7 hPa NNW 9.3 km/h   34 % 0.0 mm 431.0 W/m2 CLR
18:09 36.2 °C 17.8 °C 1011.7 hPa NNE 14.8 km/h 14.8 km/h 34 % 0.0 mm 404.0 W/m2 CLR
18:14 36.1 °C 17.7 °C 1011.7 hPa North 20.4 km/h 20.4 km/h 34 % 0.0 mm 411.0 W/m2 CLR
18:19 36.3 °C 17.9 °C 1011.7 hPa NW 14.8 km/h 14.8 km/h 34 % 0.0 mm 371.0 W/m2 CLR
18:24 36.3 °C 17.5 °C 1011.7 hPa NNW 9.3 km/h 9.3 km/h 33 % 0.0 mm 186.0 W/m2 CLR
18:29 36.3 °C 17.9 °C 1011.7 hPa NE 11.3 km/h 11.3 km/h 34 % 0.0 mm 316.0 W/m2 CLR
18:34 36.1 °C 17.8 °C 1011.7 hPa ENE 9.3 km/h 9.3 km/h 34 % 0.0 mm 327.0 W/m2 CLR
18:39 35.9 °C 17.6 °C 1011.7 hPa North 17.7 km/h 17.7 km/h 34 % 0.0 mm 348.0 W/m2 CLR
18:45 35.8 °C 17.1 °C 1012.1 hPa North 16.7 km/h 16.7 km/h 33 % 0.0 mm 183.0 W/m2 CLR
18:50 35.6 °C 16.8 °C 1012.1 hPa North 18.5 km/h 18.5 km/h 33 % 0.0 mm 285.0 W/m2 CLR
18:55 35.7 °C 17.8 °C 1012.1 hPa NNW 22.2 km/h 22.2 km/h 35 % 0.0 mm 283.0 W/m2 CLR
19:00 35.7 °C 17.9 °C 1012.1 hPa ESE 8.0 km/h 8.0 km/h 35 % 0.0 mm 192.0 W/m2 CLR
19:05 35.3 °C 17.9 °C 1012.1 hPa ENE 5.6 km/h 5.6 km/h 36 % 0.0 mm 190.0 W/m2 CLR
19:10 34.9 °C 17.6 °C 1012.4 hPa Calm     36 % 0.0 mm 134.0 W/m2 CLR
19:15 34.7 °C 17.8 °C 1012.4 hPa NNW 16.7 km/h 16.7 km/h 37 % 0.0 mm 127.0 W/m2 CLR
19:20 34.4 °C 17.6 °C 1012.4 hPa North 27.8 km/h 27.8 km/h 37 % 0.0 mm 123.0 W/m2 CLR
19:25 34.0 °C 17.7 °C 1012.4 hPa NNW 20.9 km/h 20.9 km/h 38 % 0.0 mm 102.0 W/m2 CLR
19:30 33.7 °C 17.4 °C 1012.8 hPa North 27.8 km/h 27.8 km/h 38 % 0.0 mm 91.0 W/m2 CLR
19:35 33.5 °C 17.7 °C 1012.8 hPa NNW 25.9 km/h 25.9 km/h 39 % 0.0 mm 83.0 W/m2 CLR
19:40 33.2 °C 17.4 °C 1012.8 hPa North 29.6 km/h 29.6 km/h 39 % 0.0 mm 76.0 W/m2 FEW
19:45 32.8 °C 17.4 °C 1012.8 hPa NNW 31.5 km/h 31.5 km/h 40 % 0.0 mm 70.0 W/m2 FEW
19:50 32.4 °C 17.5 °C 1013.1 hPa NW 31.5 km/h 31.5 km/h 41 % 0.0 mm 72.0 W/m2 FEW
19:55 32.0 °C 17.1 °C 1013.1 hPa NNW 40.2 km/h 40.2 km/h 41 % 0.0 mm 79.0 W/m2 FEW
20:00 31.5 °C 17.1 °C 1013.1 hPa NNW 38.9 km/h 38.9 km/h 42 % 0.0 mm 63.0 W/m2 SCT
20:05 31.1 °C 17.1 °C 1013.1 hPa NW 38.9 km/h 38.9 km/h 43 % 0.0 mm 54.0 W/m2 SCT
20:10 30.9 °C 17.2 °C 1013.4 hPa NNW 37.0 km/h 37.0 km/h 44 % 0.0 mm 46.0 W/m2 SCT
20:15 30.7 °C 17.0 °C 1013.4 hPa NW 44.4 km/h 44.4 km/h 44 % 0.0 mm 40.0 W/m2 BKN
20:20 30.4 °C 17.2 °C 1013.4 hPa NNW 40.7 km/h 40.7 km/h 45 % 0.0 mm 33.0 W/m2 BKN
20:25 30.2 °C 16.9 °C 1013.8 hPa NNW 35.2 km/h 35.2 km/h 45 % 0.0 mm 28.0 W/m2 BKN
20:30 30.0 °C 16.8 °C 1013.8 hPa NW 42.6 km/h 42.6 km/h 45 % 0.0 mm 26.0 W/m2 BKN
20:35 29.8 °C 16.6 °C 1013.8 hPa NW 31.5 km/h 31.5 km/h 45 % 0.0 mm 23.0 W/m2 BKN
20:40 29.6 °C 16.4 °C 1013.8 hPa NW 42.6 km/h 42.6 km/h 45 % 0.0 mm 16.0 W/m2 BKN
20:45 29.2 °C 16.1 °C 1014.1 hPa NW 37.0 km/h 37.0 km/h 45 % 0.0 mm 12.0 W/m2 BKN
20:50 28.9 °C 15.8 °C 1014.1 hPa NW 33.8 km/h 33.8 km/h 45 % 0.0 mm 7.0 W/m2 BKN
20:55 28.8 °C 15.7 °C 1014.1 hPa NW 27.8 km/h 27.8 km/h 45 % 0.0 mm 0.0 W/m2 OVC
21:00 28.7 °C 15.6 °C 1014.4 hPa NNW 31.5 km/h 31.5 km/h 45 % 0.0 mm 0.0 W/m2 CLR
21:05 28.6 °C 15.2 °C 1014.4 hPa NW 38.9 km/h 38.9 km/h 44 % 0.0 mm 0.0 W/m2 CLR
21:10 28.5 °C 15.1 °C 1014.4 hPa NW 31.5 km/h 31.5 km/h 44 % 0.0 mm 0.0 W/m2 CLR
21:15 28.4 °C 14.9 °C 1014.4 hPa NNW 35.2 km/h 35.2 km/h 44 % 0.0 mm 0.0 W/m2 CLR
21:20 28.3 °C 14.9 °C 1014.8 hPa NW 29.6 km/h 29.6 km/h 44 % 0.0 mm 0.0 W/m2 CLR
21:25 28.2 °C 14.8 °C 1014.8 hPa NNW 25.9 km/h 25.9 km/h 44 % 0.0 mm 0.0 W/m2 CLR
21:30 28.2 °C 14.8 °C 1015.1 hPa NW 27.8 km/h 27.8 km/h 44 % 0.0 mm 0.0 W/m2 CLR
21:35 28.0 °C 14.6 °C 1015.1 hPa WNW 31.5 km/h 31.5 km/h 44 % 0.0 mm 0.0 W/m2 CLR
21:40 27.9 °C 14.5 °C 1015.1 hPa NNW 38.9 km/h 38.9 km/h 44 % 0.0 mm 0.0 W/m2 CLR
21:45 27.8 °C 14.4 °C 1015.5 hPa NW 33.3 km/h 33.3 km/h 44 % 0.0 mm 0.0 W/m2 CLR
21:50 27.7 °C 14.7 °C 1015.5 hPa WNW 31.5 km/h 31.5 km/h 45 % 0.0 mm 0.0 W/m2 CLR
21:55 27.5 °C 14.5 °C 1015.5 hPa WNW 35.2 km/h 35.2 km/h 45 % 0.0 mm 0.0 W/m2 CLR
22:00 27.4 °C 14.4 °C 1015.5 hPa WNW 41.8 km/h 41.8 km/h 45 % 0.0 mm 0.0 W/m2 CLR
22:05 27.3 °C 14.7 °C 1015.5 hPa NW 37.0 km/h 37.0 km/h 46 % 0.0 mm 0.0 W/m2 CLR
22:10 27.1 °C 14.5 °C 1015.5 hPa WNW 31.5 km/h 31.5 km/h 46 % 0.0 mm 0.0 W/m2 CLR
22:15 27.1 °C 14.4 °C 1015.8 hPa WNW 18.5 km/h 18.5 km/h 46 % 0.0 mm 0.0 W/m2 CLR
22:20 26.9 °C 14.3 °C 1015.8 hPa NW 24.1 km/h 24.1 km/h 46 % 0.0 mm 0.0 W/m2 CLR
22:25 26.8 °C 14.2 °C 1015.8 hPa WNW 25.9 km/h 25.9 km/h 46 % 0.0 mm 0.0 W/m2 CLR
22:30 26.8 °C 14.5 °C 1015.8 hPa West 31.5 km/h 31.5 km/h 47 % 0.0 mm 0.0 W/m2 CLR
22:35 26.7 °C 14.4 °C 1015.8 hPa West 18.5 km/h 18.5 km/h 47 % 0.0 mm 0.0 W/m2 CLR
22:40 26.6 °C 14.7 °C 1015.8 hPa West 22.5 km/h 22.5 km/h 48 % 0.0 mm 0.0 W/m2 CLR
22:45 26.4 °C 14.6 °C 1015.8 hPa WNW 30.6 km/h 30.6 km/h 48 % 0.0 mm 0.0 W/m2 CLR
22:51 26.3 °C 14.8 °C 1016.1 hPa West 22.2 km/h 22.2 km/h 49 % 0.0 mm 0.0 W/m2 CLR
22:56 26.2 °C 14.6 °C 1016.1 hPa West 24.1 km/h 24.1 km/h 49 % 0.0 mm 0.0 W/m2 CLR
23:01 26.1 °C 14.8 °C 1016.1 hPa West 24.1 km/h 24.1 km/h 50 % 0.0 mm 0.0 W/m2 CLR
23:06 25.9 °C 14.7 °C 1016.1 hPa WNW 20.4 km/h 20.4 km/h 50 % 0.0 mm 0.0 W/m2 CLR
23:11 25.9 °C 14.7 °C 1016.1 hPa West 18.5 km/h 18.5 km/h 50 % 0.0 mm 0.0 W/m2 CLR
23:16 25.8 °C 14.6 °C 1016.1 hPa West 31.5 km/h 31.5 km/h 50 % 0.0 mm 0.0 W/m2 CLR
23:21 25.7 °C 14.5 °C 1016.1 hPa West 22.2 km/h 22.2 km/h 50 % 0.0 mm 0.0 W/m2 CLR
23:26 25.7 °C 14.8 °C 1016.1 hPa WNW 20.4 km/h 20.4 km/h 51 % 0.0 mm 0.0 W/m2 CLR
23:31 25.6 °C 14.7 °C 1016.5 hPa WNW 27.8 km/h 27.8 km/h 51 % 0.0 mm 0.0 W/m2 CLR
23:36 25.5 °C 14.6 °C 1016.5 hPa WSW 24.1 km/h 24.1 km/h 51 % 0.0 mm 0.0 W/m2 CLR
23:41 25.4 °C 14.6 °C 1016.5 hPa West 31.5 km/h 31.5 km/h 51 % 0.0 mm 0.0 W/m2 CLR
23:46 25.3 °C 14.8 °C 1016.5 hPa West 27.8 km/h 27.8 km/h 52 % 0.0 mm 0.0 W/m2 CLR
23:51 25.2 °C 14.7 °C 1016.5 hPa West 24.1 km/h 24.1 km/h 52 % 0.0 mm 0.0 W/m2 CLR
23:56 25.2 °C 14.6 °C 1016.5 hPa WNW 31.5 km/h 31.5 km/h 52 % 0.0 mm 0.0 W/m2 CLR
Lo Temps de Massalio
Compliments of Weather Underground - 1.25 mb